createdAt,value
2019-02-05T00:02:13.183Z,11.03
2019-02-05T00:04:48.860Z,11.63
2019-02-05T00:07:20.810Z,11.87
2019-02-05T00:10:00.860Z,12.63
2019-02-05T00:12:34.232Z,12.33
2019-02-05T00:15:05.561Z,12.67
2019-02-05T00:17:35.268Z,11.43
2019-02-05T00:20:07.325Z,12.23
2019-02-05T00:22:48.976Z,11.87
2019-02-05T00:25:18.474Z,13.43
2019-02-05T00:27:49.661Z,12.27
2019-02-05T00:30:19.336Z,15.20
2019-02-05T00:32:50.873Z,13.90
2019-02-05T00:35:21.623Z,13.07
2019-02-05T00:37:55.331Z,12.67
2019-02-05T00:40:26.877Z,13.47
2019-02-05T00:42:58.223Z,13.23
2019-02-05T00:45:29.358Z,13.60
2019-02-05T00:48:03.482Z,12.83
2019-02-05T00:50:34.790Z,14.40
2019-02-05T00:53:18.040Z,12.43
2019-02-05T00:55:53.901Z,15.07
2019-02-05T00:58:30.875Z,14.73
2019-02-05T01:01:00.683Z,14.20
2019-02-05T01:03:35.103Z,14.60
2019-02-05T01:06:06.316Z,13.60
2019-02-05T01:08:40.137Z,14.07
2019-02-05T01:11:09.791Z,14.40
2019-02-05T01:13:43.464Z,12.37
2019-02-05T01:16:17.819Z,15.03
2019-02-05T01:18:50.290Z,14.27
2019-02-05T01:21:24.198Z,14.57
2019-02-05T01:23:54.523Z,14.90
2019-02-05T01:26:29.364Z,14.93
2019-02-05T01:29:01.791Z,14.73
2019-02-05T01:31:32.728Z,14.20
2019-02-05T01:34:03.746Z,14.00
2019-02-05T01:36:35.229Z,14.90
2019-02-05T01:39:06.776Z,14.57
2019-02-05T01:41:39.881Z,13.67
2019-02-05T01:44:11.810Z,13.67
2019-02-05T01:46:41.786Z,15.40
2019-02-05T01:49:13.870Z,14.50
2019-02-05T01:51:47.481Z,16.23
2019-02-05T01:54:25.257Z,15.33
2019-02-05T01:57:07.217Z,15.00
2019-02-05T01:59:39.025Z,15.87
2019-02-05T02:02:19.431Z,17.03
2019-02-05T02:05:06.756Z,15.73
2019-02-05T02:07:39.499Z,17.17
2019-02-05T02:10:17.888Z,16.07
2019-02-05T02:12:50.677Z,16.30
2019-02-05T02:15:24.836Z,14.53
2019-02-05T02:17:59.570Z,16.20
2019-02-05T02:20:36.139Z,15.03
2019-02-05T02:23:05.791Z,15.63
2019-02-05T02:25:37.525Z,16.17
2019-02-05T02:28:08.750Z,16.40
2019-02-05T02:30:42.184Z,15.70
2019-02-05T02:33:16.865Z,15.43
2019-02-05T02:35:56.032Z,14.47
2019-02-05T02:38:27.703Z,15.03
2019-02-05T02:41:00.842Z,14.77
2019-02-05T02:43:31.824Z,14.67
2019-02-05T02:46:03.656Z,14.33
2019-02-05T02:48:34.957Z,16.23
2019-02-05T02:51:07.731Z,14.57
2019-02-05T02:53:37.346Z,16.33
2019-02-05T02:56:08.932Z,14.90
2019-02-05T02:58:40.628Z,15.83
2019-02-05T03:01:14.645Z,15.87
2019-02-05T03:03:48.817Z,15.27
2019-02-05T03:06:25.380Z,15.87
2019-02-05T03:08:58.877Z,16.60
2019-02-05T03:11:32.752Z,14.70
2019-02-05T03:14:07.358Z,14.77
2019-02-05T03:16:41.292Z,15.43
2019-02-05T03:19:11.794Z,14.00
2019-02-05T03:21:46.342Z,15.13
2019-02-05T03:24:17.155Z,13.73
2019-02-05T03:26:47.485Z,15.30
2019-02-05T03:29:19.305Z,15.07
2019-02-05T03:31:50.384Z,14.93
2019-02-05T03:34:21.300Z,13.07
2019-02-05T03:36:52.759Z,15.23
2019-02-05T03:39:25.386Z,13.77
2019-02-05T03:41:55.922Z,13.13
2019-02-05T03:44:26.654Z,13.13
2019-02-05T03:46:58.234Z,14.07
2019-02-05T03:49:34.875Z,13.83
2019-02-05T03:52:07.194Z,13.13
2019-02-05T03:54:45.850Z,11.97
2019-02-05T03:57:30.608Z,11.53
2019-02-05T04:00:32.025Z,11.80
2019-02-05T04:03:21.566Z,11.70
2019-02-05T04:06:18.587Z,12.17
2019-02-05T04:09:01.620Z,11.70
2019-02-05T04:12:02.640Z,11.97
2019-02-05T04:14:56.128Z,13.07
2019-02-05T04:17:37.564Z,13.60
2019-02-05T04:20:20.000Z,12.67
2019-02-05T04:23:11.557Z,12.73
2019-02-05T04:25:50.126Z,13.03
2019-02-05T04:28:30.378Z,12.73
2019-02-05T04:31:41.195Z,14.57
2019-02-05T04:34:49.554Z,12.57
2019-02-05T04:37:47.789Z,14.33
2019-02-05T04:40:39.474Z,12.73
2019-02-05T04:43:25.475Z,13.87
2019-02-05T04:46:20.110Z,13.57
2019-02-05T04:49:07.921Z,12.80
2019-02-05T04:55:00.687Z,12.97
2019-02-05T04:57:56.986Z,12.40
2019-02-05T05:00:46.194Z,13.83
2019-02-05T05:03:38.478Z,12.40
2019-02-05T05:06:32.147Z,13.00
2019-02-05T05:09:34.833Z,11.80
2019-02-05T05:12:13.130Z,12.40
2019-02-05T05:17:45.023Z,11.93
2019-02-05T05:20:23.333Z,11.80
2019-02-05T05:22:54.471Z,12.10
2019-02-05T05:25:27.045Z,12.97
2019-02-05T05:28:10.212Z,12.63
2019-02-05T05:30:36.730Z,12.97
2019-02-05T05:33:08.425Z,13.43
2019-02-05T05:35:41.878Z,12.53
2019-02-05T05:38:12.301Z,10.67
2019-02-05T05:40:44.285Z,10.97
2019-02-05T05:43:19.323Z,11.00
2019-02-05T05:45:49.022Z,10.00
2019-02-05T05:48:20.399Z,12.33
2019-02-05T05:51:04.691Z,11.47
2019-02-05T05:53:34.975Z,11.00
2019-02-05T05:56:04.726Z,10.03
2019-02-05T05:58:35.111Z,10.90
2019-02-05T06:01:07.005Z,11.00
2019-02-05T06:03:38.465Z,10.83
2019-02-05T06:06:08.093Z,12.20
2019-02-05T06:08:38.089Z,10.07
2019-02-05T06:11:07.829Z,11.13
2019-02-05T06:13:37.875Z,9.80
2019-02-05T06:16:20.085Z,10.47
2019-02-05T06:19:01.796Z,11.20
2019-02-05T06:21:32.771Z,9.87
2019-02-05T06:24:02.696Z,10.83
2019-02-05T06:26:34.491Z,10.70
2019-02-05T06:29:04.771Z,9.50
2019-02-05T06:31:35.756Z,10.17
2019-02-05T06:34:08.027Z,10.83
2019-02-05T06:36:37.709Z,11.13
2019-02-05T06:39:08.296Z,11.90
2019-02-05T06:41:37.953Z,11.63
2019-02-05T06:44:07.590Z,11.40
2019-02-05T06:46:40.109Z,11.27
2019-02-05T06:49:11.150Z,10.30
2019-02-05T06:51:44.969Z,10.47
2019-02-05T06:54:14.632Z,11.23
2019-02-05T06:56:44.363Z,11.87
2019-02-05T06:59:15.457Z,11.07
2019-02-05T07:01:47.751Z,11.50
2019-02-05T07:04:17.783Z,12.33
2019-02-05T07:06:47.840Z,10.93
2019-02-05T07:09:19.162Z,11.37
2019-02-05T07:11:48.835Z,12.47
2019-02-05T07:14:18.647Z,13.17
2019-02-05T07:16:52.108Z,13.17
2019-02-05T07:19:23.354Z,12.30
2019-02-05T07:21:53.454Z,14.40
2019-02-05T07:24:26.414Z,13.30
2019-02-05T07:26:59.554Z,15.67
2019-02-05T07:29:31.034Z,13.90
2019-02-05T07:32:02.546Z,13.87
2019-02-05T07:34:33.661Z,14.13
2019-02-05T07:37:03.511Z,15.30
2019-02-05T07:39:33.306Z,13.57
2019-02-05T07:42:05.071Z,13.27
2019-02-05T07:44:34.711Z,15.00
2019-02-05T07:47:07.773Z,14.80
2019-02-05T07:49:37.827Z,15.40
2019-02-05T07:52:07.629Z,12.77
2019-02-05T07:54:41.453Z,16.60
2019-02-05T07:57:11.500Z,14.33
2019-02-05T07:59:42.650Z,15.90
2019-02-05T08:02:13.616Z,14.40
2019-02-05T08:04:45.312Z,16.03
2019-02-05T08:07:16.527Z,14.93
2019-02-05T08:09:47.284Z,15.93
2019-02-05T08:12:19.647Z,16.07
2019-02-05T08:14:59.084Z,15.97
2019-02-05T08:17:28.804Z,15.50
2019-02-05T08:19:59.688Z,15.33
2019-02-05T08:22:32.164Z,14.87
2019-02-05T08:25:03.599Z,13.60
2019-02-05T08:27:33.354Z,15.20
2019-02-05T08:30:03.628Z,15.20
2019-02-05T08:32:33.318Z,15.50
2019-02-05T08:35:03.555Z,13.70
2019-02-05T08:37:33.283Z,15.00
2019-02-05T08:40:03.244Z,14.40
2019-02-05T08:42:34.795Z,14.17
2019-02-05T08:45:08.910Z,11.87
2019-02-05T08:47:40.920Z,13.77
2019-02-05T08:50:14.024Z,13.47
2019-02-05T08:52:43.670Z,14.63
2019-02-05T08:55:16.049Z,14.10
2019-02-05T08:57:48.650Z,11.90
2019-02-05T09:00:22.620Z,13.60
2019-02-05T09:02:53.834Z,12.97
2019-02-05T09:05:23.682Z,12.93
2019-02-05T09:07:56.673Z,13.30
2019-02-05T09:10:33.022Z,14.37
2019-02-05T09:13:03.011Z,13.20
2019-02-05T09:15:33.908Z,12.37
2019-02-05T09:18:04.870Z,12.23
2019-02-05T09:20:34.679Z,13.07
2019-02-05T09:23:05.877Z,12.27
2019-02-05T09:25:37.099Z,13.90
2019-02-05T09:28:06.769Z,14.00
2019-02-05T09:30:37.034Z,12.73
2019-02-05T09:33:11.590Z,13.57
2019-02-05T09:35:42.411Z,13.67
2019-02-05T09:38:15.401Z,13.13
2019-02-05T09:40:46.154Z,13.07
2019-02-05T09:43:16.561Z,13.77
2019-02-05T09:45:46.305Z,13.13
2019-02-05T09:48:19.913Z,14.13
2019-02-05T09:50:49.561Z,13.17
2019-02-05T09:53:19.189Z,13.20
2019-02-05T09:55:52.456Z,12.50
2019-02-05T09:58:22.408Z,12.03
2019-02-05T10:00:52.129Z,14.13
2019-02-05T10:03:23.016Z,13.67
2019-02-05T10:05:52.741Z,13.17
2019-02-05T10:08:23.933Z,15.20
2019-02-05T10:10:54.708Z,13.97
2019-02-05T10:13:27.734Z,13.13
2019-02-05T10:15:59.230Z,14.27
2019-02-05T10:18:30.907Z,15.40
2019-02-05T10:21:01.212Z,14.70
2019-02-05T10:23:33.469Z,15.13
2019-02-05T10:26:07.306Z,14.53
2019-02-05T10:28:38.747Z,13.20
2019-02-05T10:31:08.472Z,15.87
2019-02-05T10:33:39.110Z,15.37
2019-02-05T10:36:11.660Z,16.30
2019-02-05T10:38:41.280Z,15.67
2019-02-05T10:41:11.137Z,14.57
2019-02-05T10:43:43.627Z,16.27
2019-02-05T10:46:16.382Z,17.10
2019-02-05T10:48:47.541Z,13.47
2019-02-05T10:51:18.105Z,16.77
2019-02-05T10:53:47.829Z,15.67
2019-02-05T10:56:19.013Z,14.77
2019-02-05T10:58:48.728Z,14.83
2019-02-05T11:01:19.967Z,16.17
2019-02-05T11:03:50.476Z,16.77
2019-02-05T11:06:20.288Z,17.23
2019-02-05T11:08:51.705Z,16.07
2019-02-05T11:11:21.432Z,16.20
2019-02-05T11:13:51.099Z,16.70
2019-02-05T11:16:22.162Z,13.00
2019-02-05T11:18:54.097Z,14.13
2019-02-05T11:21:23.725Z,15.37
2019-02-05T11:23:53.365Z,16.90
2019-02-05T11:26:25.679Z,12.70
2019-02-05T11:28:57.899Z,17.23
2019-02-05T11:31:28.027Z,14.83
2019-02-05T11:33:59.121Z,12.97
2019-02-05T11:36:28.743Z,14.93
2019-02-05T11:38:59.073Z,17.17
2019-02-05T11:41:28.790Z,16.13
2019-02-05T11:43:58.418Z,16.23
2019-02-05T11:46:28.032Z,16.33
2019-02-05T11:48:57.759Z,16.10
2019-02-05T11:51:27.423Z,16.40
2019-02-05T11:53:57.063Z,17.00
2019-02-05T11:56:26.747Z,14.57
2019-02-05T11:58:56.935Z,16.70
2019-02-05T12:01:38.606Z,15.80
2019-02-05T12:03:59.299Z,16.67
2019-02-05T12:06:29.044Z,15.73
2019-02-05T12:08:58.729Z,14.83
2019-02-05T12:11:30.030Z,14.57
2019-02-05T12:13:59.787Z,15.17
2019-02-05T12:16:29.419Z,15.03
2019-02-05T12:18:59.058Z,15.63
2019-02-05T12:21:31.741Z,16.07
2019-02-05T12:24:01.450Z,16.87
2019-02-05T12:26:31.539Z,16.07
2019-02-05T12:29:01.174Z,16.43
2019-02-05T12:31:30.872Z,16.73
2019-02-05T12:34:00.599Z,14.63
2019-02-05T12:36:31.923Z,16.00
2019-02-05T12:39:01.626Z,15.93
2019-02-05T12:41:33.195Z,16.50
2019-02-05T12:44:04.142Z,17.23
2019-02-05T12:46:33.777Z,15.97
2019-02-05T12:49:06.226Z,16.10
2019-02-05T12:51:37.781Z,16.30
2019-02-05T12:54:09.031Z,16.53
2019-02-05T12:56:39.960Z,15.77
2019-02-05T12:59:10.296Z,15.47
2019-02-05T13:01:43.543Z,15.17
2019-02-05T13:04:13.246Z,15.43
2019-02-05T13:06:44.424Z,15.37
2019-02-05T13:09:14.336Z,14.70
2019-02-05T13:11:43.963Z,15.87
2019-02-05T13:14:13.966Z,16.40
2019-02-05T13:16:43.669Z,15.63
2019-02-05T13:19:14.414Z,17.47
2019-02-05T13:21:45.142Z,16.07
2019-02-05T13:24:16.824Z,16.87
2019-02-05T13:26:46.503Z,16.70
2019-02-05T13:29:16.886Z,16.47
2019-02-05T13:31:46.538Z,15.13
2019-02-05T13:34:17.352Z,16.63
2019-02-05T13:36:47.660Z,15.20
2019-02-05T13:39:17.336Z,17.43
2019-02-05T13:41:47.134Z,16.87
2019-02-05T13:44:17.628Z,17.33
2019-02-05T13:46:47.353Z,17.73
2019-02-05T13:49:17.302Z,17.27
2019-02-05T13:51:46.910Z,16.40
2019-02-05T13:54:17.408Z,18.60
2019-02-05T13:56:47.101Z,17.13
2019-02-05T13:59:16.728Z,15.87
2019-02-05T14:01:46.452Z,15.87
2019-02-05T14:04:17.749Z,17.50
2019-02-05T14:06:50.459Z,15.43
2019-02-05T14:09:19.014Z,15.67
2019-02-05T14:11:48.711Z,16.80
2019-02-05T14:14:18.379Z,17.20
2019-02-05T14:16:48.014Z,15.03
2019-02-05T14:19:19.238Z,16.93
2019-02-05T14:21:48.843Z,14.07
2019-02-05T14:24:18.537Z,14.77
2019-02-05T14:26:48.224Z,13.40
2019-02-05T14:29:17.824Z,15.10
2019-02-05T14:31:48.663Z,15.67
2019-02-05T14:34:19.673Z,17.63
2019-02-05T14:36:49.280Z,17.23
2019-02-05T14:39:20.014Z,15.87
2019-02-05T14:41:49.709Z,16.37
2019-02-05T14:44:19.322Z,17.70
2019-02-05T14:46:50.700Z,15.93
2019-02-05T14:49:20.471Z,16.43
2019-02-05T14:51:51.455Z,16.63
2019-02-05T14:54:21.102Z,16.30
2019-02-05T14:56:50.793Z,16.10
2019-02-05T14:59:23.468Z,17.63
2019-02-05T15:01:52.859Z,16.23
2019-02-05T15:04:22.926Z,17.27
2019-02-05T15:06:52.845Z,16.97
2019-02-05T15:09:23.109Z,17.77
2019-02-05T15:11:52.818Z,15.50
2019-02-05T15:14:23.712Z,17.43
2019-02-05T15:17:03.334Z,16.67
2019-02-05T15:19:32.968Z,18.23
2019-02-05T15:22:02.907Z,17.00
2019-02-05T15:24:37.930Z,18.03
2019-02-05T15:27:06.682Z,17.33
2019-02-05T15:29:37.520Z,16.93
2019-02-05T15:32:07.118Z,18.37
2019-02-05T15:34:36.805Z,18.33
2019-02-05T15:37:06.565Z,18.30
2019-02-05T15:39:37.032Z,16.70
2019-02-05T15:42:06.749Z,17.70
2019-02-05T15:44:36.417Z,18.30
2019-02-05T15:47:07.109Z,16.00
2019-02-05T15:49:36.790Z,17.83
2019-02-05T15:52:08.136Z,15.13
2019-02-05T15:54:37.946Z,16.77
2019-02-05T15:57:07.567Z,16.73
2019-02-05T15:59:37.255Z,16.73
2019-02-05T16:02:07.019Z,16.30
2019-02-05T16:04:36.701Z,18.03
2019-02-05T16:07:08.078Z,16.40
2019-02-05T16:09:37.735Z,16.57
2019-02-05T16:12:11.878Z,16.03
2019-02-05T16:14:45.197Z,17.73
2019-02-05T16:17:14.875Z,16.93
2019-02-05T16:19:44.594Z,17.57
2019-02-05T16:22:15.458Z,17.97
2019-02-05T16:24:45.106Z,16.90
2019-02-05T16:27:14.787Z,17.73
2019-02-05T16:29:44.553Z,16.40
2019-02-05T16:32:17.712Z,23.22
2019-02-05T16:34:45.589Z,17.00
2019-02-05T16:37:15.280Z,17.77
2019-02-05T16:39:44.984Z,17.40
2019-02-05T16:42:15.238Z,17.47
2019-02-05T16:44:45.034Z,16.37
2019-02-05T16:47:14.636Z,17.77
2019-02-05T16:49:45.893Z,15.77
2019-02-05T16:52:16.186Z,16.37
2019-02-05T16:54:45.844Z,20.72
2019-02-05T16:57:15.814Z,17.20
2019-02-05T16:59:45.524Z,16.80
2019-02-05T17:02:16.341Z,18.40
2019-02-05T17:04:48.612Z,18.70
2019-02-05T17:07:19.684Z,18.60
2019-02-05T17:09:52.430Z,18.93
2019-02-05T17:12:22.169Z,17.57
2019-02-05T17:14:52.442Z,17.70
2019-02-05T17:17:25.515Z,17.60
2019-02-05T17:19:55.234Z,17.83
2019-02-05T17:22:25.097Z,18.17
2019-02-05T17:24:55.387Z,18.70
2019-02-05T17:27:43.882Z,15.27
2019-02-05T17:30:21.490Z,17.20
2019-02-05T17:32:52.186Z,17.43
2019-02-05T17:35:25.212Z,16.10
2019-02-05T17:37:56.095Z,18.60
2019-02-05T17:40:29.762Z,16.47
2019-02-05T17:46:09.983Z,17.70
2019-02-05T17:49:12.024Z,18.57
2019-02-05T17:51:46.206Z,18.37
2019-02-05T17:54:18.363Z,17.43
2019-02-05T17:56:53.132Z,18.33
2019-02-05T17:59:26.702Z,17.03
2019-02-05T18:02:00.767Z,17.80
2019-02-05T18:04:34.586Z,18.40
2019-02-05T18:07:08.429Z,18.77
2019-02-05T18:09:58.272Z,18.23
2019-02-05T18:12:37.772Z,17.77
2019-02-05T18:15:15.447Z,20.03
2019-02-05T18:17:50.441Z,20.40
2019-02-05T18:20:23.425Z,18.10
2019-02-05T18:22:56.529Z,18.47
2019-02-05T18:25:27.068Z,18.97
2019-02-05T18:28:03.204Z,18.20
2019-02-05T18:30:40.026Z,18.37
2019-02-05T18:33:09.907Z,18.23
2019-02-05T18:35:41.295Z,18.87
2019-02-05T18:38:15.009Z,18.97
2019-02-05T18:40:45.088Z,15.30
2019-02-05T18:43:14.959Z,19.10
2019-02-05T18:45:49.434Z,20.30
2019-02-05T18:48:20.619Z,18.37
2019-02-05T18:50:50.455Z,18.83
2019-02-05T18:53:21.765Z,18.67
2019-02-05T18:55:54.142Z,18.37
2019-02-05T18:58:26.845Z,18.93
2019-02-05T19:01:00.607Z,17.23
2019-02-05T19:03:30.443Z,17.90
2019-02-05T19:06:01.781Z,19.53
2019-02-05T19:08:32.045Z,18.83
2019-02-05T19:11:05.191Z,17.23
2019-02-05T19:13:35.127Z,18.37
2019-02-05T19:16:05.861Z,17.27
2019-02-05T19:18:37.034Z,16.63
2019-02-05T19:21:06.943Z,19.03
2019-02-05T19:23:36.868Z,16.47
2019-02-05T19:26:09.645Z,19.40
2019-02-05T19:28:39.753Z,19.30
2019-02-05T19:31:11.227Z,18.40
2019-02-05T19:33:44.044Z,16.63
2019-02-05T19:36:13.667Z,17.37
2019-02-05T19:38:43.924Z,17.97
2019-02-05T19:41:13.774Z,17.87
2019-02-05T19:43:45.213Z,17.57
2019-02-05T19:46:35.131Z,16.70
2019-02-05T19:49:07.815Z,16.77
2019-02-05T19:51:38.480Z,17.00
2019-02-05T19:54:08.761Z,16.90
2019-02-05T19:56:39.905Z,17.80
2019-02-05T19:59:09.865Z,18.23
2019-02-05T20:01:39.681Z,15.73
2019-02-05T20:04:09.569Z,16.77
2019-02-05T20:06:42.776Z,17.83
2019-02-05T20:09:15.174Z,16.10
2019-02-05T20:11:48.003Z,18.17
2019-02-05T20:14:19.659Z,17.47
2019-02-05T20:16:49.517Z,18.57
2019-02-05T20:19:20.675Z,18.30
2019-02-05T20:21:50.564Z,19.27
2019-02-05T20:24:22.291Z,17.33
2019-02-05T20:26:53.945Z,17.23
2019-02-05T20:29:24.855Z,16.73
2019-02-05T20:31:55.058Z,15.97
2019-02-05T20:34:25.761Z,17.90
2019-02-05T20:36:58.448Z,17.40
2019-02-05T20:39:28.274Z,17.77
2019-02-05T20:41:59.739Z,16.10
2019-02-05T20:44:29.638Z,18.50
2019-02-05T20:46:59.490Z,17.07
2019-02-05T20:49:30.543Z,17.33
2019-02-05T20:52:00.407Z,15.83
2019-02-05T20:54:31.789Z,18.43
2019-02-05T20:57:02.324Z,16.00
2019-02-05T20:59:33.648Z,17.27
2019-02-05T21:02:03.499Z,15.57
2019-02-05T21:04:35.571Z,17.17
2019-02-05T21:07:05.661Z,19.10
2019-02-05T21:09:36.390Z,19.40
2019-02-05T21:12:06.244Z,16.70
2019-02-05T21:14:37.878Z,16.50
2019-02-05T21:17:07.688Z,16.87
2019-02-05T21:19:37.507Z,16.80
2019-02-05T21:22:09.004Z,16.80
2019-02-05T21:24:41.041Z,15.70
2019-02-05T21:27:10.957Z,16.93
2019-02-05T21:29:40.825Z,16.67
2019-02-05T21:32:10.722Z,14.33
2019-02-05T21:34:42.088Z,16.63
2019-02-05T21:37:15.564Z,17.13
2019-02-05T21:39:45.810Z,16.40
2019-02-05T21:42:16.748Z,15.67
2019-02-05T21:44:46.648Z,14.17
2019-02-05T21:47:16.694Z,16.83
2019-02-05T21:49:46.841Z,16.03
2019-02-05T21:52:18.213Z,16.47
2019-02-05T21:54:49.185Z,13.90
2019-02-05T21:57:20.918Z,14.87
2019-02-05T21:59:51.376Z,14.80
2019-02-05T22:02:22.437Z,15.77
2019-02-05T22:04:52.395Z,17.53
2019-02-05T22:07:25.021Z,14.67
2019-02-05T22:09:54.906Z,15.67
2019-02-05T22:12:24.736Z,14.53
2019-02-05T22:14:55.178Z,15.50
2019-02-05T22:17:27.992Z,14.47
2019-02-05T22:19:58.722Z,14.93
2019-02-05T22:22:28.942Z,17.60
2019-02-05T22:25:00.465Z,16.43
2019-02-05T22:27:31.560Z,16.70
2019-02-05T22:30:01.562Z,15.70
2019-02-05T22:32:31.684Z,13.27
2019-02-05T22:35:01.608Z,17.23
2019-02-05T22:37:31.438Z,15.17
2019-02-05T22:40:01.996Z,15.23
2019-02-05T22:42:31.812Z,16.00
2019-02-05T22:45:03.360Z,15.20
2019-02-05T22:47:33.702Z,14.97
2019-02-05T22:50:04.376Z,16.17
2019-02-05T22:52:35.727Z,16.40
2019-02-05T22:55:08.876Z,15.83
2019-02-05T22:57:38.722Z,14.87
2019-02-05T23:00:38.672Z,16.30
2019-02-05T23:03:09.764Z,16.30
2019-02-05T23:06:12.403Z,15.63
2019-02-05T23:08:43.677Z,15.87
2019-02-05T23:11:31.503Z,15.50
2019-02-05T23:14:01.341Z,16.67
2019-02-05T23:16:32.259Z,14.57
2019-02-05T23:19:02.072Z,16.40
2019-02-05T23:21:32.935Z,15.73
2019-02-05T23:24:04.258Z,14.60
2019-02-05T23:26:38.478Z,15.50
2019-02-05T23:29:09.590Z,13.13
2019-02-05T23:31:39.787Z,12.33
2019-02-05T23:34:09.656Z,14.50
2019-02-05T23:36:40.110Z,15.50
2019-02-05T23:39:11.163Z,14.00
2019-02-05T23:41:41.031Z,13.80
2019-02-05T23:44:12.327Z,13.40
2019-02-05T23:46:42.865Z,12.23
2019-02-05T23:49:12.721Z,12.97
2019-02-05T23:51:42.513Z,13.50
2019-02-05T23:54:12.405Z,10.40
2019-02-05T23:56:43.153Z,11.60
2019-02-05T23:59:13.033Z,13.23
